Time;durP1;ratioP1;P1;durP2;ratioP2;P2;SDS_P1;SDS_P2;PMS_P1;PMS_P2;Temp;Humidity;BMP_temperature;BMP_pressure;BME280_temperature;BME280_humidity;BME280_pressure;Samples;Min_cycle;Max_cycle;Signal;HPM_P1;HPM_P2
2021/06/10 00:01:26;;;;;;;1.80;1.27;;;;;;;15.31;73.52;99264.09;4994552;28;20038;-71
2021/06/10 00:03:51;;;;;;;1.50;1.00;;;;;;;15.32;73.71;99263.09;5033183;28;20033;-71
2021/06/10 00:06:17;;;;;;;1.70;1.42;;;;;;;15.33;73.52;99264.78;5033925;28;20037;-72
2021/06/10 00:08:43;;;;;;;2.63;1.10;;;;;;;15.31;73.43;99264.09;5033460;28;20133;-70
2021/06/10 00:11:09;;;;;;;1.38;1.00;;;;;;;15.29;73.38;99263.44;5033498;28;20498;-70
2021/06/10 00:13:35;;;;;;;1.17;1.08;;;;;;;15.23;73.45;99264.06;5033237;28;20041;-70
2021/06/10 00:16:01;;;;;;;2.30;1.30;;;;;;;15.22;73.43;99266.91;5033635;28;20033;-71
2021/06/10 00:18:27;;;;;;;1.60;1.10;;;;;;;15.13;73.81;99266.03;5033483;28;20039;-70
2021/06/10 00:20:53;;;;;;;2.90;1.00;;;;;;;15.14;73.97;99267.69;5033028;28;20048;-72
2021/06/10 00:23:19;;;;;;;1.23;1.00;;;;;;;15.11;73.84;99270.66;5033274;28;20538;-72
2021/06/10 00:25:45;;;;;;;1.67;1.00;;;;;;;15.14;73.86;99273.00;5032963;28;20132;-72
2021/06/10 00:28:11;;;;;;;1.30;1.05;;;;;;;15.13;73.98;99279.34;5033267;28;20034;-72
2021/06/10 00:30:36;;;;;;;1.30;1.20;;;;;;;15.09;74.06;99277.97;5033133;28;20405;-71
2021/06/10 00:33:03;;;;;;;2.28;1.40;;;;;;;15.13;74.01;99272.19;5033348;28;20038;-70
2021/06/10 00:35:33;;;;;;;1.70;1.20;;;;;;;15.14;73.70;99275.66;5033301;28;20037;-71
2021/06/10 00:38:00;;;;;;;1.85;1.27;;;;;;;15.13;73.67;99274.03;5047675;28;20033;-72
2021/06/10 00:40:31;;;;;;;2.00;1.40;;;;;;;15.10;73.70;99271.66;5032887;28;20423;-72
2021/06/10 00:42:58;;;;;;;1.15;1.00;;;;;;;15.08;73.98;99270.97;5031641;28;20068;-73
2021/06/10 00:45:25;;;;;;;2.28;1.30;;;;;;;15.03;73.99;99269.63;5032915;28;20064;-70
2021/06/10 00:47:52;;;;;;;2.47;1.30;;;;;;;15.06;73.85;99272.97;5033211;28;20037;-70
2021/06/10 00:50:21;;;;;;;1.65;1.25;;;;;;;15.03;73.83;99269.63;5032933;28;20120;-69
2021/06/10 00:52:47;;;;;;;3.72;1.20;;;;;;;14.99;74.27;99262.94;5032745;28;20075;-68
2021/06/10 00:55:14;;;;;;;1.65;1.10;;;;;;;14.97;74.41;99270.25;5033125;28;20502;-70
2021/06/10 00:57:40;;;;;;;1.70;1.48;;;;;;;14.94;74.64;99267.91;5033092;28;20395;-70
2021/06/10 01:00:08;;;;;;;2.50;1.30;;;;;;;14.90;74.87;99263.06;5033575;28;20029;-70
2021/06/10 01:02:34;;;;;;;2.85;1.30;;;;;;;14.84;74.96;99259.16;5023570;28;20038;-70
2021/06/10 01:05:00;;;;;;;2.25;1.27;;;;;;;14.82;74.88;99263.84;5010920;28;20467;-71
2021/06/10 01:07:44;;;;;;;1.50;1.17;;;;;;;14.81;75.01;99270.16;5011592;28;20080;-71
2021/06/10 01:10:27;;;;;;;2.97;1.10;;;;;;;14.72;75.09;99261.28;5013077;28;20033;-70
2021/06/10 01:16:35;;;;;;;1.85;1.23;;;;;;;14.72;74.99;99258.59;5009497;28;20045;-71
2021/06/10 01:19:09;;;;;;;1.95;1.35;;;;;;;14.70;74.95;99258.78;5011178;28;20451;-73
2021/06/10 01:21:36;;;;;;;2.00;1.30;;;;;;;14.71;75.27;99259.59;5011543;28;20057;-71
2021/06/10 01:24:29;;;;;;;2.97;1.30;;;;;;;14.71;75.09;99259.59;5010845;28;20117;-72
2021/06/10 01:27:11;;;;;;;1.48;1.25;;;;;;;14.74;74.83;99253.13;5012320;28;20168;-72
2021/06/10 01:29:39;;;;;;;1.52;1.30;;;;;;;14.69;74.67;99246.44;5012441;28;20046;-70
2021/06/10 01:32:05;;;;;;;;;;;;;;;14.66;74.57;99245.91;5013107;28;20088;-72
2021/06/10 01:34:31;;;;;;;1.45;1.15;;;;;;;14.66;74.39;99243.25;4994816;28;19914;-70
2021/06/10 01:36:57;;;;;;;2.30;1.40;;;;;;;14.71;74.39;99244.44;4992538;28;20105;-71
2021/06/10 01:39:26;;;;;;;1.75;1.38;;;;;;;14.71;74.36;99249.75;5011167;28;20042;-73
2021/06/10 01:41:53;;;;;;;1.70;1.35;;;;;;;14.66;74.48;99241.41;4994346;28;20545;-72
2021/06/10 01:44:20;;;;;;;1.45;1.20;;;;;;;14.67;74.01;99237.78;5012481;28;20137;-71
2021/06/10 01:46:49;;;;;;;1.20;1.10;;;;;;;14.65;74.09;99239.75;5027014;28;20044;-71
2021/06/10 01:49:16;;;;;;;1.20;1.05;;;;;;;14.65;74.06;99242.41;5010789;28;20053;-71
2021/06/10 01:51:42;;;;;;;1.70;1.20;;;;;;;14.65;74.35;99245.06;5010313;28;20038;-72
2021/06/10 01:54:09;;;;;;;2.05;1.60;;;;;;;14.62;74.21;99245.34;5012134;28;20482;-71
2021/06/10 01:56:35;;;;;;;1.70;1.50;;;;;;;14.64;74.80;99238.06;5011890;28;20124;-72
2021/06/10 01:59:02;;;;;;;1.40;1.20;;;;;;;14.63;74.57;99247.03;5012091;28;20041;-70
2021/06/10 02:01:29;;;;;;;1.67;1.42;;;;;;;14.64;74.79;99238.06;5008435;28;20034;-71
2021/06/10 02:03:56;;;;;;;3.07;1.40;;;;;;;14.67;74.78;99244.94;5013320;28;20040;-71
2021/06/10 02:06:23;;;;;;;1.80;1.40;;;;;;;14.75;74.51;99238.81;5029471;28;20411;-71
2021/06/10 02:08:50;;;;;;;1.38;1.20;;;;;;;14.71;74.53;99239.13;5030471;28;20360;-71
2021/06/10 02:11:16;;;;;;;2.03;1.33;;;;;;;14.66;74.29;99235.28;5031435;28;20561;-70
2021/06/10 02:13:44;;;;;;;1.42;1.30;;;;;;;14.59;74.19;99239.50;5030244;28;20044;-73
2021/06/10 02:16:11;;;;;;;2.33;1.55;;;;;;;14.61;74.19;99251.66;5030534;28;20047;-70
2021/06/10 02:18:39;;;;;;;2.53;1.35;;;;;;;14.56;74.40;99245.97;5031766;28;20497;-71
2021/06/10 02:21:06;;;;;;;2.05;1.83;;;;;;;14.56;74.61;99251.31;5031408;28;20034;-70
2021/06/10 02:23:38;;;;;;;2.72;1.50;;;;;;;14.54;74.77;99253.28;5046942;28;20049;-71
2021/06/10 02:26:06;;;;;;;2.92;1.40;;;;;;;14.52;74.82;99261.41;5029887;28;20061;-72
2021/06/10 02:28:32;;;;;;;1.67;1.55;;;;;;;14.47;74.97;99262.88;5030307;28;20048;-70
2021/06/10 02:30:59;;;;;;;2.22;1.63;;;;;;;14.47;75.49;99261.03;5031380;28;20042;-71
2021/06/10 02:33:25;;;;;;;1.90;1.65;;;;;;;14.49;75.57;99266.22;5031735;28;20061;-71
2021/06/10 02:35:52;;;;;;;2.10;1.38;;;;;;;14.45;75.78;99254.22;5029882;28;20367;-72
2021/06/10 02:38:19;;;;;;;1.95;1.50;;;;;;;14.37;76.08;99258.47;5031571;28;20114;-73
2021/06/10 02:40:51;;;;;;;2.75;1.65;;;;;;;14.36;76.27;99261.28;5013710;28;20151;-70
2021/06/10 02:43:17;;;;;;;2.10;1.65;;;;;;;14.38;76.33;99249.50;5031434;28;20037;-70
2021/06/10 02:45:45;;;;;;;2.58;1.60;;;;;;;14.28;76.53;99251.41;5031541;28;20049;-70
2021/06/10 02:48:11;;;;;;;;;;;;;;;14.22;77.01;99249.38;5030527;28;20497;-72
2021/06/10 02:50:39;;;;;;;1.73;1.50;;;;;;;14.20;77.25;99246.00;5031361;28;20009;-73
2021/06/10 02:53:06;;;;;;;1.77;1.67;;;;;;;14.17;77.40;99246.34;5031078;28;20056;-73
2021/06/10 02:55:35;;;;;;;2.15;1.52;;;;;;;14.23;77.61;99243.03;5029916;28;20076;-70
2021/06/10 02:58:03;;;;;;;2.42;1.85;;;;;;;14.27;77.36;99240.91;4991934;28;20038;-70
2021/06/10 03:00:31;;;;;;;2.00;1.80;;;;;;;14.22;77.64;99241.38;4998828;28;20045;-70
2021/06/10 03:02:57;;;;;;;2.05;1.70;;;;;;;14.16;78.10;99244.66;4999155;28;20491;-71
2021/06/10 03:05:25;;;;;;;2.65;1.75;;;;;;;14.18;78.14;99237.34;4994425;28;20383;-71
2021/06/10 03:07:52;;;;;;;2.85;2.17;;;;;;;14.18;78.13;99245.31;4994364;28;20038;-72
2021/06/10 03:10:24;;;;;;;4.03;2.38;;;;;;;14.21;78.16;99247.69;5002543;28;20090;-70
2021/06/10 03:12:51;;;;;;;2.58;2.03;;;;;;;14.26;77.67;99240.09;4993558;28;20456;-71
2021/06/10 03:15:17;;;;;;;3.15;1.98;;;;;;;14.30;77.84;99240.63;4993743;28;20070;-72
2021/06/10 03:17:44;;;;;;;2.40;2.10;;;;;;;14.32;77.38;99242.13;4998845;28;20113;-73
2021/06/10 03:20:10;;;;;;;2.10;1.80;;;;;;;14.38;77.08;99248.66;4999320;28;20045;-73
2021/06/10 03:22:37;;;;;;;3.58;1.85;;;;;;;14.36;77.30;99243.50;4994069;28;20030;-72
2021/06/10 03:25:05;;;;;;;2.60;2.03;;;;;;;14.38;77.11;99241.53;4993912;28;20093;-71
2021/06/10 03:27:32;;;;;;;2.67;1.98;;;;;;;14.38;77.18;99244.19;5005186;28;20037;-71
2021/06/10 03:29:58;;;;;;;3.03;2.35;;;;;;;14.33;76.90;99246.47;5014633;28;20323;-71
2021/06/10 03:32:27;;;;;;;3.50;1.90;;;;;;;14.33;76.97;99257.09;5014051;28;20048;-71
2021/06/10 03:34:56;;;;;;;3.15;2.00;;;;;;;14.36;77.22;99255.97;5014125;28;20038;-71
2021/06/10 03:37:23;;;;;;;2.45;2.13;;;;;;;14.39;77.18;99245.00;5013089;28;20105;-71
2021/06/10 03:39:50;;;;;;;3.17;2.47;;;;;;;14.39;77.01;99250.31;5014278;28;20034;-73
2021/06/10 03:42:20;;;;;;;3.70;2.20;;;;;;;14.36;76.82;99250.66;5014047;28;20517;-70
2021/06/10 03:44:46;;;;;;;3.88;2.10;;;;;;;14.39;76.88;99242.34;5013124;28;20034;-70
2021/06/10 03:47:16;;;;;;;3.33;2.00;;;;;;;14.40;76.81;99252.84;5013022;28;20070;-74
2021/06/10 03:49:42;;;;;;;3.28;2.05;;;;;;;14.35;76.86;99247.13;5014341;28;20076;-73
2021/06/10 03:52:08;;;;;;;4.35;2.10;;;;;;;14.45;76.90;99254.22;4994854;28;20074;-72
2021/06/10 03:54:34;;;;;;;2.83;2.35;;;;;;;14.50;76.73;99244.75;4992738;28;20085;-73
2021/06/10 03:57:00;;;;;;;2.50;2.30;;;;;;;14.57;76.54;99253.81;4992712;28;20483;-70
2021/06/10 03:59:26;;;;;;;4.80;2.38;;;;;;;14.52;76.72;99245.44;4996939;28;20038;-72
2021/06/10 04:01:52;;;;;;;4.28;2.63;;;;;;;14.48;76.48;99243.25;4992829;28;20534;-70
2021/06/10 04:04:19;;;;;;;3.83;2.50;;;;;;;14.43;76.42;99256.19;4993227;28;20038;-71
2021/06/10 04:06:58;;;;;;;2.53;2.10;;;;;;;14.43;76.85;99250.84;4993039;28;20042;-70
2021/06/10 04:09:24;;;;;;;5.45;2.50;;;;;;;14.51;77.03;99248.28;4992876;28;20779;-74
2021/06/10 04:11:49;;;;;;;2.58;2.10;;;;;;;14.56;76.67;99251.31;4991687;28;20072;-72
2021/06/10 04:14:16;;;;;;;4.07;2.30;;;;;;;14.61;76.33;99243.69;4995678;28;20475;-72
2021/06/10 04:16:42;;;;;;;3.13;2.33;;;;;;;14.63;76.37;99244.38;4993193;28;20483;-71
2021/06/10 04:19:09;;;;;;;5.60;2.95;;;;;;;14.60;75.94;99244.66;4992614;28;20038;-72
2021/06/10 04:21:35;;;;;;;5.28;2.40;;;;;;;14.57;76.19;99243.16;4992736;28;20042;-71
2021/06/10 04:24:02;;;;;;;3.75;2.58;;;;;;;14.62;76.04;99244.53;4993140;28;20092;-73
2021/06/10 04:26:28;;;;;;;;;;;;;;;14.61;75.84;99238.34;4993207;28;20035;-72
2021/06/10 04:28:54;;;;;;;3.40;2.17;;;;;;;14.65;75.99;99244.25;4991986;28;19917;-74
2021/06/10 04:31:23;;;;;;;2.88;2.30;;;;;;;14.62;76.09;99245.34;4991900;28;20138;-73
2021/06/10 04:33:49;;;;;;;3.75;2.50;;;;;;;14.54;75.75;99254.13;4991615;28;20054;-74
2021/06/10 04:36:16;;;;;;;3.72;2.22;;;;;;;14.52;76.01;99249.94;4993150;28;20380;-73
2021/06/10 04:38:42;;;;;;;2.88;2.20;;;;;;;14.55;75.87;99265.59;4991974;28;20042;-75
2021/06/10 04:41:08;;;;;;;2.63;2.40;;;;;;;14.64;75.95;99259.34;4993242;28;20042;-73
2021/06/10 04:43:34;;;;;;;3.15;2.25;;;;;;;14.52;76.30;99260.59;4992519;28;20038;-74
2021/06/10 04:46:00;;;;;;;3.20;2.90;;;;;;;14.53;76.02;99267.59;4993392;28;20161;-73
2021/06/10 04:48:29;;;;;;;2.65;2.40;;;;;;;14.52;76.19;99281.88;4992592;28;20038;-73
2021/06/10 04:50:55;;;;;;;2.80;2.60;;;;;;;14.48;76.35;99270.72;5002578;28;20048;-74
2021/06/10 04:53:21;;;;;;;3.45;3.15;;;;;;;14.44;76.26;99279.13;5012038;28;20041;-74
2021/06/10 04:55:47;;;;;;;3.28;2.85;;;;;;;14.43;76.62;99280.13;5012762;28;20072;-74
2021/06/10 04:58:13;;;;;;;6.43;3.05;;;;;;;14.33;76.81;99280.19;5011342;28;20141;-76
2021/06/10 05:00:39;;;;;;;3.70;3.15;;;;;;;14.31;76.80;99285.69;5012773;28;20093;-74
2021/06/10 05:03:06;;;;;;;3.63;3.25;;;;;;;14.26;77.24;99285.31;5026216;28;20391;-73
2021/06/10 05:05:33;;;;;;;5.43;3.22;;;;;;;14.34;76.95;99280.06;5031584;28;20063;-75
2021/06/10 05:07:59;;;;;;;3.17;2.88;;;;;;;14.25;77.11;99275.66;5032480;28;20439;-74
2021/06/10 05:10:25;;;;;;;3.25;2.85;;;;;;;14.24;77.16;99284.59;5032329;28;20041;-76
2021/06/10 05:12:51;;;;;;;3.75;2.97;;;;;;;14.30;77.30;99289.31;5032401;28;20038;-75
2021/06/10 05:15:17;;;;;;;3.55;3.08;;;;;;;14.35;76.94;99286.22;5032402;28;20033;-77
2021/06/10 05:17:43;;;;;;;4.07;3.65;;;;;;;14.28;77.33;99290.47;5032707;28;20033;-76
2021/06/10 05:20:10;;;;;;;3.88;3.50;;;;;;;14.29;77.12;99294.81;5031036;28;20041;-73
2021/06/10 05:22:35;;;;;;;21.88;16.83;;;;;;;14.32;77.14;99291.84;5032831;28;20034;-74
2021/06/10 05:25:02;;;;;;;3.80;3.40;;;;;;;14.36;77.22;99285.22;5031485;28;20497;-72
2021/06/10 05:27:28;;;;;;;3.65;3.20;;;;;;;14.35;77.03;99292.34;5032772;28;20039;-75
2021/06/10 05:29:54;;;;;;;3.83;3.30;;;;;;;14.38;77.15;99291.22;5033377;28;20049;-72
2021/06/10 05:32:23;;;;;;;4.57;3.20;;;;;;;14.33;76.96;99291.69;5034341;28;20208;-74
2021/06/10 05:34:48;;;;;;;4.63;3.20;;;;;;;14.32;76.97;99289.19;5033199;28;20049;-73
2021/06/10 05:37:14;;;;;;;4.75;3.30;;;;;;;14.43;77.02;99301.41;5031908;28;20107;-74
2021/06/10 05:39:40;;;;;;;3.88;3.15;;;;;;;14.48;76.46;99293.78;5032124;28;20111;-75
2021/06/10 05:42:06;;;;;;;4.25;3.60;;;;;;;14.47;76.39;99297.47;5031814;28;20041;-78
2021/06/10 05:44:32;;;;;;;3.92;2.92;;;;;;;14.56;76.50;99294.72;5030862;28;20034;-74
2021/06/10 05:46:58;;;;;;;3.30;3.00;;;;;;;14.53;76.28;99291.53;5030569;28;20145;-74
2021/06/10 05:49:24;;;;;;;3.38;3.08;;;;;;;14.55;76.41;99298.38;5032023;28;20037;-73
2021/06/10 05:51:50;;;;;;;3.88;2.95;;;;;;;14.53;76.00;99299.53;5031733;28;20037;-75
2021/06/10 05:54:16;;;;;;;5.53;3.00;;;;;;;14.50;76.33;99300.63;5031750;28;20413;-75
2021/06/10 05:56:42;;;;;;;2.90;2.53;;;;;;;14.43;76.10;99298.75;5030481;28;20485;-73
2021/06/10 05:59:07;;;;;;;5.22;3.80;;;;;;;14.42;76.42;99307.72;5031451;28;20033;-74
2021/06/10 06:01:33;;;;;;;4.07;3.30;;;;;;;14.46;76.63;99303.78;5030991;28;20045;-73
2021/06/10 06:03:59;;;;;;;3.55;3.08;;;;;;;14.53;76.19;99304.84;5010919;28;20038;-73
2021/06/10 06:06:25;;;;;;;15.20;12.55;;;;;;;14.57;75.94;99307.03;4994634;28;20184;-74
2021/06/10 06:08:51;;;;;;;3.30;3.00;;;;;;;14.56;76.00;99301.88;5010943;28;20528;-74
2021/06/10 06:11:18;;;;;;;4.50;3.45;;;;;;;14.56;76.14;99307.19;5011621;28;20038;-75
2021/06/10 06:13:49;;;;;;;4.07;3.30;;;;;;;14.55;76.17;99310.84;5012191;28;20034;-72
2021/06/10 06:16:17;;;;;;;5.55;3.50;;;;;;;14.44;76.33;99306.56;5011879;28;20041;-74
2021/06/10 06:18:42;;;;;;;;;;;;;;;14.49;76.38;99309.63;5011364;28;20037;-74
2021/06/10 06:21:08;;;;;;;4.18;3.47;;;;;;;14.46;76.61;99309.09;5012291;28;19914;-74
2021/06/10 06:23:34;;;;;;;3.67;3.20;;;;;;;14.53;76.44;99315.50;5012401;28;20081;-75
2021/06/10 06:26:00;;;;;;;3.70;3.20;;;;;;;14.48;76.76;99313.28;5011744;28;20049;-73
2021/06/10 06:28:27;;;;;;;4.97;3.42;;;;;;;14.48;76.63;99315.09;5012143;28;20040;-74
2021/06/10 06:30:53;;;;;;;5.55;4.75;;;;;;;14.40;76.41;99316.72;5012266;28;20050;-71
2021/06/10 06:33:19;;;;;;;3.95;3.30;;;;;;;14.39;76.75;99312.38;5011754;28;20108;-75
2021/06/10 06:35:46;;;;;;;3.78;3.10;;;;;;;14.34;76.71;99313.81;5012031;28;20128;-74
2021/06/10 06:38:12;;;;;;;3.65;3.33;;;;;;;14.26;77.16;99330.53;5015470;28;20501;-74
2021/06/10 06:40:39;;;;;;;4.32;3.25;;;;;;;14.37;77.06;99322.31;5014138;28;20034;-73
2021/06/10 06:43:06;;;;;;;3.75;3.33;;;;;;;14.35;76.88;99326.94;5015532;28;20051;-74
2021/06/10 06:45:34;;;;;;;3.95;3.30;;;;;;;14.40;76.87;99324.69;5014383;28;20038;-73
2021/06/10 06:48:00;;;;;;;3.25;2.97;;;;;;;14.35;76.94;99332.25;5014296;28;20084;-77
2021/06/10 06:50:26;;;;;;;3.53;3.05;;;;;;;14.35;77.03;99331.44;5015764;28;20144;-76
2021/06/10 06:52:52;;;;;;;5.35;3.25;;;;;;;14.27;77.02;99332.19;5014378;28;20076;-72
2021/06/10 06:55:18;;;;;;;4.38;3.10;;;;;;;14.20;76.75;99331.13;5015538;28;20045;-74
2021/06/10 06:57:44;;;;;;;4.45;4.03;;;;;;;14.18;77.31;99333.09;5015897;28;20052;-74
2021/06/10 07:00:11;;;;;;;4.68;4.10;;;;;;;14.15;77.34;99338.72;5015403;28;20120;-74
2021/06/10 07:02:37;;;;;;;4.75;4.03;;;;;;;14.07;77.60;99352.78;5025019;28;20063;-74
2021/06/10 07:05:04;;;;;;;4.32;3.92;;;;;;;14.13;77.44;99351.31;5005582;28;20030;-74
2021/06/10 07:07:30;;;;;;;5.13;3.90;;;;;;;14.16;77.85;99357.19;5014256;28;20418;-75
2021/06/10 07:09:57;;;;;;;5.05;4.55;;;;;;;14.13;77.85;99357.50;5009790;28;20180;-76
2021/06/10 07:12:23;;;;;;;5.07;4.57;;;;;;;14.16;77.99;99359.84;5003255;28;20054;-75
2021/06/10 07:14:49;;;;;;;5.97;5.38;;;;;;;14.16;78.12;99359.03;5004777;28;20076;-74
2021/06/10 07:17:15;;;;;;;5.13;4.40;;;;;;;14.07;78.08;99342.13;5008382;28;20042;-75
2021/06/10 07:19:41;;;;;;;5.78;4.63;;;;;;;14.03;78.70;99336.28;4997373;28;20388;-78
2021/06/10 07:22:08;;;;;;;5.35;4.85;;;;;;;14.01;78.54;99343.56;5002430;28;20030;-75
2021/06/10 07:24:34;;;;;;;5.53;4.60;;;;;;;13.99;78.75;99340.19;5004482;28;20026;-76
2021/06/10 07:27:00;;;;;;;5.32;4.22;;;;;;;13.95;79.30;99349.47;4999905;28;20476;-76
2021/06/10 07:29:26;;;;;;;9.30;5.57;;;;;;;13.87;79.67;99352.03;5003320;28;20054;-75
2021/06/10 07:31:52;;;;;;;7.50;5.57;;;;;;;13.86;79.48;99339.72;5004202;28;20121;-75
2021/06/10 07:34:18;;;;;;;6.38;5.43;;;;;;;13.88;79.95;99337.75;4971489;28;20047;-75
2021/06/10 07:36:44;;;;;;;6.15;4.78;;;;;;;13.84;79.98;99347.00;5010687;28;20527;-74
2021/06/10 07:39:10;;;;;;;5.95;4.68;;;;;;;13.85;80.02;99354.00;5001023;28;20061;-78
2021/06/10 07:41:37;;;;;;;5.93;3.90;;;;;;;13.83;79.79;99350.66;5000592;28;20114;-76
2021/06/10 07:44:04;;;;;;;5.15;4.25;;;;;;;13.88;79.53;99343.06;5014732;28;20141;-78
2021/06/10 07:46:30;;;;;;;4.80;4.10;;;;;;;13.74;80.06;99347.91;5020289;28;20129;-77
2021/06/10 07:48:56;;;;;;;7.07;4.30;;;;;;;13.74;79.89;99342.59;4994516;28;20408;-75
2021/06/10 07:51:22;;;;;;;5.63;4.03;;;;;;;13.78;79.84;99352.91;5009566;28;20046;-79
2021/06/10 07:53:48;;;;;;;4.72;4.20;;;;;;;13.73;80.07;99354.19;5024730;28;20092;-79
2021/06/10 07:56:14;;;;;;;6.40;4.60;;;;;;;13.79;80.27;99346.63;5000740;28;20038;-76
2021/06/10 07:58:40;;;;;;;5.53;4.22;;;;;;;13.83;79.99;99353.31;5004637;28;20034;-75
2021/06/10 08:01:06;;;;;;;6.05;4.57;;;;;;;13.75;80.36;99346.06;4994791;28;20092;-77
2021/06/10 08:03:32;;;;;;;5.00;4.50;;;;;;;13.75;80.47;99348.72;5003332;28;20051;-76
2021/06/10 08:05:59;;;;;;;5.20;4.68;;;;;;;13.69;79.96;99354.63;5005585;28;20029;-75
2021/06/10 08:08:37;;;;;;;5.03;4.50;;;;;;;13.78;80.10;99351.06;5004004;28;20406;-77
2021/06/10 08:11:10;;;;;;;5.22;4.65;;;;;;;13.78;79.75;99363.53;4995795;28;20069;-78
2021/06/10 08:13:36;;;;;;;5.47;4.97;;;;;;;13.73;80.13;99359.50;5004575;28;20034;-74
2021/06/10 08:16:02;;;;;;;6.07;4.43;;;;;;;13.68;79.95;99355.59;5003309;28;20558;-74
2021/06/10 08:18:29;;;;;;;5.47;4.32;;;;;;;13.69;79.92;99366.09;5004692;28;20030;-75
2021/06/10 08:20:56;;;;;;;6.15;4.07;;;;;;;13.77;80.11;99376.00;5002576;28;20034;-77
2021/06/10 08:23:23;;;;;;;6.20;4.80;;;;;;;13.85;79.67;99365.47;5018763;28;20494;-77
2021/06/10 08:25:49;;;;;;;5.97;4.82;;;;;;;13.89;79.75;99376.66;5002530;28;20029;-75
2021/06/10 08:28:18;;;;;;;4.95;4.15;;;;;;;13.95;79.66;99369.91;5002464;28;20116;-74
2021/06/10 08:30:43;;;;;;;5.00;3.83;;;;;;;13.91;79.24;99366.72;5003390;28;20037;-74
2021/06/10 08:33:09;;;;;;;4.15;3.72;;;;;;;13.80;79.27;99372.22;5007998;28;20053;-75
2021/06/10 08:35:36;;;;;;;4.50;3.50;;;;;;;13.78;79.17;99364.38;4991797;28;20034;-76
2021/06/10 08:38:16;;;;;;;4.30;3.60;;;;;;;13.79;79.07;99373.19;5010919;28;20042;-76
2021/06/10 08:40:45;;;;;;;3.72;3.33;;;;;;;13.85;79.28;99375.28;5003137;28;20046;-76
2021/06/10 08:43:12;;;;;;;4.13;3.45;;;;;;;13.86;79.16;99379.59;5003418;28;20026;-75
2021/06/10 08:45:43;;;;;;;3.30;2.80;;;;;;;13.91;79.08;99378.16;5002700;28;20033;-74
2021/06/10 08:48:11;;;;;;;4.45;3.03;;;;;;;13.98;78.75;99378.44;5000293;28;20044;-78
2021/06/10 08:50:40;;;;;;;3.45;2.97;;;;;;;13.96;78.67;99383.06;5014585;28;20045;-76
2021/06/10 08:53:10;;;;;;;3.55;2.90;;;;;;;14.44;78.43;99369.59;5031458;28;20026;-79
2021/06/10 08:55:36;;;;;;;4.00;2.97;;;;;;;14.34;77.30;99369.66;5032898;28;20497;-73
2021/06/10 08:58:02;;;;;;;3.63;2.92;;;;;;;14.16;77.66;99378.47;5013523;28;20039;-73
2021/06/10 09:00:32;;;;;;;4.60;3.00;;;;;;;14.11;77.93;99379.91;4995865;28;20026;-74
2021/06/10 09:03:00;;;;;;;11.10;3.08;;;;;;;14.34;78.53;99378.50;4994328;28;20427;-75
2021/06/10 09:05:27;;;;;;;3.53;2.78;;;;;;;14.33;77.35;99389.28;5005732;28;20046;-72
2021/06/10 09:08:06;;;;;;;3.17;2.65;;;;;;;14.23;77.96;99379.53;5013179;28;20037;-75
2021/06/10 09:11:04;;;;;;;3.40;2.63;;;;;;;14.06;78.31;99394.47;4992778;28;20046;-76
2021/06/10 09:13:42;;;;;;;2.58;2.38;;;;;;;14.06;78.60;99394.47;4993698;28;20038;-74
2021/06/10 09:16:32;;;;;;;4.00;2.80;;;;;;;14.01;78.29;99386.09;4995486;28;20030;-72
2021/06/10 09:19:13;;;;;;;2.60;2.30;;;;;;;13.93;78.85;99388.66;5011070;28;20497;-75
2021/06/10 09:21:45;;;;;;;2.88;2.58;;;;;;;13.99;79.02;99388.06;5032252;28;20033;-73
2021/06/10 09:24:23;;;;;;;3.58;2.35;;;;;;;13.99;79.18;99390.72;5016592;28;20036;-73
2021/06/10 09:27:07;;;;;;;2.97;2.45;;;;;;;14.06;79.08;99390.97;5006759;28;20463;-74
2021/06/10 09:29:53;;;;;;;3.53;2.47;;;;;;;14.10;79.21;99391.53;5010243;28;20042;-77
2021/06/10 09:32:25;;;;;;;2.63;2.42;;;;;;;14.13;79.01;99404.50;4993473;28;20395;-75
2021/06/10 09:34:55;;;;;;;4.40;2.50;;;;;;;14.47;78.92;99395.94;5048146;28;20037;-78
2021/06/10 09:37:34;;;;;;;2.20;1.92;;;;;;;14.82;76.85;99394.28;5031366;28;20073;-78
2021/06/10 09:40:07;;;;;;;3.03;2.20;;;;;;;14.58;77.22;99393.03;5032522;28;20489;-74
2021/06/10 09:42:38;;;;;;;2.60;2.25;;;;;;;14.33;78.18;99394.59;5004377;28;20065;-74
2021/06/10 09:45:06;;;;;;;3.63;2.60;;;;;;;14.24;78.54;99401.66;4993145;28;20057;-75
2021/06/10 09:47:39;;;;;;;2.95;2.15;;;;;;;14.24;78.65;99396.31;5007143;28;20038;-77
2021/06/10 09:50:18;;;;;;;2.70;2.10;;;;;;;14.26;78.37;99398.88;5013294;28;20103;-77
2021/06/10 09:52:51;;;;;;;3.88;2.30;;;;;;;14.31;78.37;99408.06;5012990;28;20041;-77
2021/06/10 09:55:35;;;;;;;3.13;2.35;;;;;;;14.15;78.93;99407.88;5007822;28;20386;-75
2021/06/10 09:58:16;;;;;;;3.03;2.10;;;;;;;14.08;79.18;99407.59;5030178;28;20029;-76
2021/06/10 10:00:48;;;;;;;3.13;2.50;;;;;;;14.06;79.57;99405.09;5020797;28;20034;-75
2021/06/10 10:03:24;;;;;;;2.58;2.28;;;;;;;14.12;79.63;99400.19;5011631;28;20045;-77
2021/06/10 10:05:51;;;;;;;1.98;1.65;;;;;;;14.15;79.52;99407.88;5014263;28;20041;-75
2021/06/10 10:08:17;;;;;;;2.80;2.33;;;;;;;14.20;79.57;99410.91;4988445;28;20050;-73
2021/06/10 10:10:47;;;;;;;3.30;2.70;;;;;;;14.24;79.72;99401.66;5000854;28;20064;-75
2021/06/10 10:13:17;;;;;;;2.90;2.28;;;;;;;14.33;79.52;99407.91;5005942;28;20042;-77
2021/06/10 10:15:44;;;;;;;4.32;2.58;;;;;;;14.31;79.26;99397.41;5003838;28;20030;-74
2021/06/10 10:18:11;;;;;;;3.85;2.35;;;;;;;14.28;79.66;99391.56;5004278;28;20060;-73
2021/06/10 10:20:38;;;;;;;2.50;2.17;;;;;;;14.27;79.70;99398.72;5006285;28;20037;-74
2021/06/10 10:23:05;;;;;;;3.13;2.40;;;;;;;14.28;79.80;99403.03;5004935;28;20125;-72
2021/06/10 10:25:32;;;;;;;2.63;2.42;;;;;;;14.29;79.59;99395.88;5002472;28;20050;-76
2021/06/10 10:27:59;;;;;;;2.92;2.70;;;;;;;14.32;79.36;99399.09;5006096;28;20038;-73
2021/06/10 10:30:25;;;;;;;3.05;2.58;;;;;;;14.30;79.65;99390.41;5004973;28;20046;-73
2021/06/10 10:32:51;;;;;;;2.65;2.45;;;;;;;14.35;79.73;99393.47;5005459;28;20052;-74
2021/06/10 10:35:34;;;;;;;2.72;2.30;;;;;;;14.35;79.77;99387.31;5003183;28;20099;-73
2021/06/10 10:38:10;;;;;;;2.65;2.45;;;;;;;14.38;79.63;99392.31;5027859;28;20117;-72
2021/06/10 10:40:40;;;;;;;3.60;2.50;;;;;;;14.37;79.84;99393.31;5015143;28;20180;-74
2021/06/10 10:43:11;;;;;;;2.60;2.40;;;;;;;14.36;80.04;99399.63;5015919;28;20026;-76
2021/06/10 10:45:43;;;;;;;3.08;2.78;;;;;;;14.46;79.70;99399.56;5017060;28;20038;-73
2021/06/10 10:48:10;;;;;;;2.95;2.53;;;;;;;14.53;79.92;99390.00;5015634;28;20025;-79
2021/06/10 10:50:40;;;;;;;3.65;2.78;;;;;;;14.65;79.63;99391.47;5011951;28;20038;-76
2021/06/10 10:53:09;;;;;;;2.88;2.58;;;;;;;14.63;79.77;99393.44;4996399;28;20046;-77
2021/06/10 10:55:35;;;;;;;3.00;2.50;;;;;;;14.71;79.44;99398.00;4996085;28;20034;-76
2021/06/10 10:58:02;;;;;;;3.13;2.80;;;;;;;14.80;80.42;99398.94;4996956;28;20471;-73
2021/06/10 11:00:58;;;;;;;4.75;2.72;;;;;;;14.78;80.10;99400.91;4997124;28;20479;-76
2021/06/10 11:03:32;;;;;;;3.05;2.75;;;;;;;14.71;80.07;99398.84;5028270;28;20592;-75
2021/06/10 11:06:01;;;;;;;3.08;2.72;;;;;;;14.72;80.43;99397.84;5035709;28;20044;-75
2021/06/10 11:09:16;;;;;;;4.25;2.70;;;;;;;14.78;80.78;99388.44;5035224;28;20067;-74
2021/06/10 11:12:05;;;;;;;2.92;2.70;;;;;;;14.79;80.20;99373.28;5009660;28;20115;-77
2021/06/10 11:14:52;;;;;;;3.17;2.85;;;;;;;14.88;80.26;99389.19;5001675;28;20034;-72
2021/06/10 11:17:24;;;;;;;3.20;2.90;;;;;;;14.95;79.51;99389.41;4995694;28;20038;-72
2021/06/10 11:20:00;;;;;;;2.88;2.58;;;;;;;15.01;79.45;99394.09;5008972;28;20092;-77
2021/06/10 11:22:46;;;;;;;3.30;2.92;;;;;;;15.10;79.11;99391.53;5015045;28;20056;-75
2021/06/10 11:25:24;;;;;;;3.25;2.95;;;;;;;15.20;78.82;99392.25;5015210;28;20034;-80
2021/06/10 11:27:51;;;;;;;3.85;2.70;;;;;;;15.25;78.43;99383.81;5015237;28;20034;-75
2021/06/10 11:30:17;;;;;;;3.20;2.90;;;;;;;15.27;78.43;99393.31;5013634;28;20046;-73
2021/06/10 11:33:05;;;;;;;3.50;2.78;;;;;;;15.17;78.34;99398.72;5005289;28;20050;-74
2021/06/10 11:35:53;;;;;;;3.15;2.85;;;;;;;15.25;78.66;99389.97;5005509;28;20121;-75
2021/06/10 11:38:26;;;;;;;3.88;2.95;;;;;;;15.37;78.25;99391.38;5004591;28;20022;-73
2021/06/10 11:40:55;;;;;;;3.20;2.90;;;;;;;15.33;78.13;99379.38;5001909;28;20040;-75
2021/06/10 11:43:23;;;;;;;3.00;2.72;;;;;;;15.37;78.17;99383.38;5004639;28;20034;-76
2021/06/10 11:46:04;;;;;;;3.00;2.78;;;;;;;15.46;77.79;99391.44;5004003;28;20471;-75